createdAt,value
2018-12-05T00:01:44.500Z,98387.16
2018-12-05T00:04:14.174Z,98384.20
2018-12-05T00:06:43.893Z,98380.46
2018-12-05T00:09:13.939Z,98379.11
2018-12-05T00:11:43.620Z,98374.20
2018-12-05T00:14:13.244Z,98378.26
2018-12-05T00:16:43.058Z,98383.31
2018-12-05T00:19:13.554Z,98385.33
2018-12-05T00:21:43.767Z,98386.97
2018-12-05T00:24:13.402Z,98388.27
2018-12-05T00:26:43.357Z,98386.42
2018-12-05T00:29:13.064Z,98382.77
2018-12-05T00:31:42.811Z,98380.56
2018-12-05T00:37:53.242Z,98376.01
2018-12-05T00:40:23.434Z,98372.17
2018-12-05T00:42:53.145Z,98370.81
2018-12-05T00:45:22.775Z,98369.61
2018-12-05T00:47:52.554Z,98365.41
2018-12-05T00:50:22.646Z,98361.21
2018-12-05T00:52:52.458Z,98367.83
2018-12-05T00:55:22.238Z,98373.02
2018-12-05T00:57:52.886Z,98365.77
2018-12-05T01:00:22.701Z,98364.95
2018-12-05T01:02:54.140Z,98369.68
2018-12-05T01:05:24.070Z,98375.87
2018-12-05T01:07:53.958Z,98370.32
2018-12-05T01:10:23.699Z,98373.23
2018-12-05T01:12:53.535Z,98370.86
2018-12-05T01:15:23.590Z,98368.69
2018-12-05T01:17:53.710Z,98371.95
2018-12-05T01:20:23.605Z,98364.94
2018-12-05T01:22:53.485Z,98353.98
2018-12-05T01:25:23.374Z,98341.81
2018-12-05T01:27:53.038Z,98339.02
2018-12-05T01:30:23.083Z,98322.79
2018-12-05T01:32:53.164Z,98321.16
2018-12-05T01:35:23.258Z,98335.52
2018-12-05T01:37:53.129Z,98342.47
2018-12-05T01:40:23.214Z,98338.94
2018-12-05T01:42:52.968Z,98342.99
2018-12-05T01:45:22.703Z,98344.84
2018-12-05T01:47:52.374Z,98339.47
2018-12-05T01:50:22.023Z,98337.48
2018-12-05T01:52:51.726Z,98334.92
2018-12-05T01:55:22.179Z,98334.06
2018-12-05T01:57:53.029Z,98334.42
2018-12-05T02:00:22.764Z,98339.33
2018-12-05T02:02:52.515Z,98332.07
2018-12-05T02:05:22.307Z,98331.86
2018-12-05T02:07:52.527Z,98332.50
2018-12-05T02:10:22.739Z,98334.06
2018-12-05T02:12:52.362Z,98323.61
2018-12-05T02:15:21.960Z,98328.02
2018-12-05T02:17:51.790Z,98334.70
2018-12-05T02:20:21.565Z,98347.59
2018-12-05T02:22:51.996Z,98352.36
2018-12-05T02:25:21.825Z,98356.70
2018-12-05T02:27:51.447Z,98359.72
2018-12-05T02:30:21.139Z,98360.28
2018-12-05T02:32:50.919Z,98353.63
2018-12-05T02:35:20.647Z,98348.94
2018-12-05T02:37:50.334Z,98347.41
2018-12-05T02:40:20.141Z,98340.01
2018-12-05T02:42:50.067Z,98341.86
2018-12-05T02:45:19.985Z,98344.56
2018-12-05T02:47:49.695Z,98340.86
2018-12-05T02:50:19.890Z,98338.16
2018-12-05T02:52:49.536Z,98339.52
2018-12-05T02:55:19.179Z,98345.41
2018-12-05T02:57:48.903Z,98332.25
2018-12-05T03:00:18.713Z,98335.88
2018-12-05T03:02:49.063Z,98327.06
2018-12-05T03:05:18.734Z,98330.19
2018-12-05T03:07:48.369Z,98331.25
2018-12-05T03:10:18.210Z,98325.14
2018-12-05T03:12:48.250Z,98331.25
2018-12-05T03:15:18.362Z,98337.16
2018-12-05T03:17:48.906Z,98330.69
2018-12-05T03:20:18.983Z,98329.19
2018-12-05T03:22:48.671Z,98329.19
2018-12-05T03:25:18.817Z,98325.63
2018-12-05T03:27:48.443Z,98323.03
2018-12-05T03:30:24.261Z,98318.38
2018-12-05T03:32:54.785Z,98323.28
2018-12-05T03:35:30.755Z,98325.41
2018-12-05T03:38:00.586Z,98320.36
2018-12-05T03:40:31.059Z,98316.20
2018-12-05T03:43:01.197Z,98313.50
2018-12-05T03:45:32.454Z,98317.41
2018-12-05T03:48:02.303Z,98314.07
2018-12-05T03:50:32.194Z,98310.52
2018-12-05T03:53:02.345Z,98312.01
2018-12-05T03:55:32.793Z,98322.47
2018-12-05T03:58:03.056Z,98314.07
2018-12-05T04:00:32.870Z,98310.88
2018-12-05T04:03:02.633Z,98314.07
2018-12-05T04:05:32.391Z,98318.41
2018-12-05T04:08:02.640Z,98314.36
2018-12-05T04:10:32.466Z,98317.91
2018-12-05T04:13:02.436Z,98319.48
2018-12-05T04:15:32.371Z,98315.20
2018-12-05T04:18:02.204Z,98311.19
2018-12-05T04:20:31.932Z,98319.25
2018-12-05T04:23:01.753Z,98317.27
2018-12-05T04:25:31.886Z,98314.39
2018-12-05T04:28:01.742Z,98318.02
2018-12-05T04:30:31.707Z,98315.81
2018-12-05T04:33:01.623Z,98316.52
2018-12-05T04:35:31.759Z,98320.58
2018-12-05T04:38:01.603Z,98316.87
2018-12-05T04:40:32.530Z,98322.42
2018-12-05T04:43:02.253Z,98318.02
2018-12-05T04:45:32.767Z,98320.44
2018-12-05T04:48:02.912Z,98319.23
2018-12-05T04:50:34.406Z,98320.26
2018-12-05T04:53:04.309Z,98324.63
2018-12-05T04:55:35.199Z,98325.84
2018-12-05T04:58:05.504Z,98316.52
2018-12-05T05:00:35.520Z,98317.56
2018-12-05T05:03:05.327Z,98315.84
2018-12-05T05:08:12.260Z,98323.81
2018-12-05T05:10:42.217Z,98320.33
2018-12-05T05:13:12.936Z,98317.13
2018-12-05T05:15:43.868Z,98320.69
2018-12-05T05:18:13.874Z,98321.89
2018-12-05T05:20:45.481Z,98323.39
2018-12-05T05:23:17.123Z,98316.63
2018-12-05T05:25:47.003Z,98308.77
2018-12-05T05:28:17.717Z,98292.20
2018-12-05T05:30:49.326Z,98293.08
2018-12-05T05:33:19.121Z,98298.38
2018-12-05T05:35:48.879Z,98290.45
2018-12-05T05:38:18.754Z,98287.86
2018-12-05T05:40:51.570Z,98284.73
2018-12-05T05:43:22.578Z,98287.82
2018-12-05T05:45:52.966Z,98278.75
2018-12-05T05:48:22.856Z,98274.48
2018-12-05T05:50:52.983Z,98285.83
2018-12-05T05:53:24.707Z,98280.42
2018-12-05T05:55:55.317Z,98282.48
2018-12-05T05:58:30.508Z,98276.19
2018-12-05T06:01:01.051Z,98269.81
2018-12-05T06:03:31.265Z,98269.02
2018-12-05T06:06:00.986Z,98278.55
2018-12-05T06:08:30.794Z,98284.88
2018-12-05T06:11:00.868Z,98283.59
2018-12-05T06:13:32.272Z,98281.27
2018-12-05T06:16:02.321Z,98284.83
2018-12-05T06:18:33.085Z,98289.33
2018-12-05T06:21:02.941Z,98295.69
2018-12-05T06:23:32.527Z,98297.48
2018-12-05T06:26:03.242Z,98300.92
2018-12-05T06:28:34.598Z,98303.69
2018-12-05T06:31:05.606Z,98301.33
2018-12-05T06:33:37.197Z,98297.65
2018-12-05T06:36:10.786Z,98294.64
2018-12-05T06:38:41.674Z,98290.79
2018-12-05T06:41:15.221Z,98292.50
2018-12-05T06:43:46.072Z,98296.08
2018-12-05T06:46:16.857Z,98301.22
2018-12-05T06:48:48.235Z,98295.50
2018-12-05T06:51:19.230Z,98298.56
2018-12-05T06:53:49.965Z,98292.81
2018-12-05T06:56:21.956Z,98295.28
2018-12-05T06:58:53.326Z,98291.38
2018-12-05T07:08:11.811Z,98295.64
2018-12-05T07:10:43.180Z,98289.58
2018-12-05T07:13:21.815Z,98286.56
2018-12-05T07:15:59.416Z,98282.50
2018-12-05T07:18:34.066Z,98288.42
2018-12-05T07:21:06.523Z,98293.16
2018-12-05T07:23:38.019Z,98300.27
2018-12-05T07:26:09.077Z,98306.20
2018-12-05T07:28:39.959Z,98307.88
2018-12-05T07:31:11.820Z,98307.20
2018-12-05T07:33:42.536Z,98305.02
2018-12-05T07:36:16.352Z,98300.43
2018-12-05T07:38:48.225Z,98296.90
2018-12-05T07:41:17.838Z,98302.63
2018-12-05T07:43:47.702Z,98304.69
2018-12-05T07:46:18.169Z,98306.28
2018-12-05T07:48:47.791Z,98299.50
2018-12-05T07:51:17.646Z,98295.81
2018-12-05T07:53:47.693Z,98285.66
2018-12-05T07:56:17.447Z,98288.02
2018-12-05T07:58:47.857Z,98290.73
2018-12-05T08:01:17.691Z,98287.68
2018-12-05T08:03:47.821Z,98274.14
2018-12-05T08:06:17.579Z,98276.70
2018-12-05T08:08:47.539Z,98272.48
2018-12-05T08:11:17.213Z,98269.27
2018-12-05T08:13:47.813Z,98270.47
2018-12-05T08:16:17.923Z,98262.69
2018-12-05T08:18:47.548Z,98267.26
2018-12-05T08:21:17.218Z,98262.69
2018-12-05T08:23:47.244Z,98255.23
2018-12-05T08:26:16.984Z,98256.59
2018-12-05T08:28:46.965Z,98250.50
2018-12-05T08:31:18.091Z,98252.20
2018-12-05T08:33:48.324Z,98251.52
2018-12-05T08:36:17.950Z,98246.60
2018-12-05T08:38:47.573Z,98244.39
2018-12-05T08:41:17.456Z,98241.37
2018-12-05T08:43:47.161Z,98238.36
2018-12-05T08:46:17.071Z,98237.51
2018-12-05T08:48:46.951Z,98235.65
2018-12-05T08:51:17.424Z,98237.00
2018-12-05T08:53:47.135Z,98236.31
2018-12-05T08:56:16.913Z,98235.30
2018-12-05T08:58:47.562Z,98231.08
2018-12-05T09:01:17.366Z,98237.11
2018-12-05T09:03:49.872Z,98245.94
2018-12-05T09:06:22.543Z,98236.66
2018-12-05T09:08:53.820Z,98240.52
2018-12-05T09:11:25.161Z,98241.17
2018-12-05T09:13:56.660Z,98242.88
2018-12-05T09:16:27.986Z,98234.34
2018-12-05T09:18:59.721Z,98234.50
2018-12-05T09:21:31.499Z,98231.13
2018-12-05T09:24:06.209Z,98237.55
2018-12-05T09:26:39.520Z,98239.17
2018-12-05T09:29:10.206Z,98234.06
2018-12-05T09:31:41.483Z,98232.39
2018-12-05T09:34:16.231Z,98232.39
2018-12-05T09:36:49.580Z,98235.42
2018-12-05T09:39:22.422Z,98225.64
2018-12-05T09:41:55.101Z,98220.95
2018-12-05T09:44:29.077Z,98218.09
2018-12-05T09:46:59.405Z,98209.37
2018-12-05T09:49:29.785Z,98206.55
2018-12-05T09:51:59.496Z,98206.40
2018-12-05T09:54:29.117Z,98205.90
2018-12-05T09:56:58.962Z,98204.31
2018-12-05T09:59:29.146Z,98195.22
2018-12-05T10:01:59.619Z,98188.29
2018-12-05T10:04:29.588Z,98192.86
2018-12-05T10:06:59.415Z,98187.45
2018-12-05T10:09:29.452Z,98183.38
2018-12-05T10:11:59.113Z,98175.30
2018-12-05T10:14:28.933Z,98178.36
2018-12-05T10:16:59.166Z,98175.84
2018-12-05T10:19:29.217Z,98176.84
2018-12-05T10:21:59.161Z,98167.02
2018-12-05T10:24:29.207Z,98165.66
2018-12-05T10:26:58.824Z,98159.08
2018-12-05T10:29:28.475Z,98157.73
2018-12-05T10:31:58.613Z,98156.72
2018-12-05T10:34:28.274Z,98160.12
2018-12-05T10:36:57.956Z,98151.84
2018-12-05T10:39:28.067Z,98159.27
2018-12-05T10:41:57.764Z,98160.28
2018-12-05T10:44:28.285Z,98159.97
2018-12-05T10:46:58.580Z,98151.69
2018-12-05T10:49:28.858Z,98140.69
2018-12-05T10:51:58.813Z,98125.44
2018-12-05T10:54:29.409Z,98144.09
2018-12-05T10:56:59.082Z,98130.01
2018-12-05T10:59:29.142Z,98130.89
2018-12-05T11:02:03.757Z,98113.94
2018-12-05T11:04:39.043Z,98108.86
2018-12-05T11:07:16.254Z,98098.53
2018-12-05T11:09:53.225Z,98096.67
2018-12-05T11:12:27.895Z,98094.49
2018-12-05T11:15:03.251Z,98087.55
2018-12-05T11:17:38.266Z,98094.14
2018-12-05T11:20:16.378Z,98094.48
2018-12-05T11:22:52.994Z,98091.11
2018-12-05T11:25:23.694Z,98084.50
2018-12-05T11:27:54.015Z,98075.17
2018-12-05T11:30:23.867Z,98072.45
2018-12-05T11:32:54.126Z,98056.06
2018-12-05T11:35:23.767Z,98067.56
2018-12-05T11:37:53.792Z,98064.67
2018-12-05T11:40:23.430Z,98041.66
2018-12-05T11:42:53.401Z,98039.95
2018-12-05T11:45:23.565Z,98035.22
2018-12-05T11:47:53.740Z,98040.29
2018-12-05T11:50:23.500Z,98048.77
2018-12-05T11:52:53.222Z,98048.95
2018-12-05T11:55:23.093Z,98045.39
2018-12-05T11:57:52.836Z,98048.45
2018-12-05T12:00:22.740Z,98051.50
2018-12-05T12:02:53.146Z,98047.11
2018-12-05T12:05:22.763Z,98041.00
2018-12-05T12:07:52.495Z,98041.00
2018-12-05T12:13:20.166Z,98031.69
2018-12-05T12:15:51.138Z,98036.27
2018-12-05T12:18:21.107Z,98030.50
2018-12-05T12:20:50.811Z,98018.64
2018-12-05T12:23:23.204Z,98013.41
2018-12-05T12:25:57.270Z,98013.05
2018-12-05T12:28:30.537Z,98008.83
2018-12-05T12:31:03.371Z,98002.54
2018-12-05T12:33:49.637Z,98006.45
2018-12-05T12:36:22.119Z,97999.66
2018-12-05T12:38:53.750Z,97990.01
2018-12-05T12:41:23.398Z,97989.83
2018-12-05T12:43:53.546Z,97984.41
2018-12-05T12:46:23.240Z,97977.78
2018-12-05T12:48:53.156Z,97979.34
2018-12-05T12:51:23.717Z,97974.08
2018-12-05T12:53:53.831Z,97958.66
2018-12-05T12:56:24.863Z,97964.08
2018-12-05T12:58:54.754Z,97955.42
2018-12-05T13:01:24.534Z,97956.44
2018-12-05T13:03:54.674Z,97953.91
2018-12-05T13:06:24.850Z,97953.56
2018-12-05T13:08:55.134Z,97942.03
2018-12-05T13:11:25.397Z,97941.55
2018-12-05T13:13:55.356Z,97936.77
2018-12-05T13:16:25.242Z,97934.58
2018-12-05T13:18:55.711Z,97934.92
2018-12-05T13:21:25.653Z,97937.96
2018-12-05T13:23:55.366Z,97926.27
2018-12-05T13:26:25.696Z,97927.98
2018-12-05T13:28:55.524Z,97923.91
2018-12-05T13:31:25.122Z,97920.86
2018-12-05T13:33:55.114Z,97924.41
2018-12-05T13:36:25.018Z,97921.20
2018-12-05T13:38:55.206Z,97922.88
2018-12-05T13:41:24.883Z,97917.47
2018-12-05T13:43:54.917Z,97923.75
2018-12-05T13:46:30.006Z,97916.12
2018-12-05T13:48:56.422Z,97913.89
2018-12-05T13:51:26.269Z,97911.20
2018-12-05T13:53:56.181Z,97909.33
2018-12-05T13:56:26.100Z,97904.59
2018-12-05T13:58:55.744Z,97900.50
2018-12-05T14:01:26.429Z,97895.41
2018-12-05T14:03:56.153Z,97890.50
2018-12-05T14:06:25.893Z,97885.41
2018-12-05T14:08:55.822Z,97884.40
2018-12-05T14:11:26.214Z,97878.98
2018-12-05T14:13:56.199Z,97880.86
2018-12-05T14:16:25.935Z,97872.22
2018-12-05T14:18:55.637Z,97857.63
2018-12-05T14:21:25.422Z,97865.09
2018-12-05T14:23:55.266Z,97858.64
2018-12-05T14:26:25.419Z,97865.09
2018-12-05T14:28:55.321Z,97857.45
2018-12-05T14:31:25.140Z,97859.66
2018-12-05T14:33:54.768Z,97857.11
2018-12-05T14:36:25.253Z,97853.58
2018-12-05T14:38:56.085Z,97852.53
2018-12-05T14:41:26.457Z,97855.08
2018-12-05T14:43:56.122Z,97852.53
2018-12-05T14:46:26.254Z,97837.98
2018-12-05T14:48:56.672Z,97831.69
2018-12-05T14:51:26.456Z,97839.82
2018-12-05T14:53:56.920Z,97835.78
2018-12-05T14:56:26.779Z,97840.00
2018-12-05T14:58:56.632Z,97829.84
2018-12-05T15:01:26.566Z,97825.09
2018-12-05T15:03:56.257Z,97824.08
2018-12-05T15:06:27.249Z,97823.23
2018-12-05T15:08:57.341Z,97820.36
2018-12-05T15:11:27.285Z,97823.23
2018-12-05T15:13:57.240Z,97818.31
2018-12-05T15:16:27.245Z,97817.33
2018-12-05T15:18:56.921Z,97815.63
2018-12-05T15:21:26.506Z,97813.73
2018-12-05T15:23:56.108Z,97814.76
2018-12-05T15:26:25.716Z,97818.31
2018-12-05T15:28:55.349Z,97809.67
2018-12-05T15:31:25.660Z,97797.81
2018-12-05T15:33:55.511Z,97790.89
2018-12-05T15:36:25.290Z,97786.30
2018-12-05T15:38:55.282Z,97787.33
2018-12-05T15:41:25.077Z,97784.78
2018-12-05T15:43:54.998Z,97774.63
2018-12-05T15:46:24.922Z,97771.40
2018-12-05T15:48:54.529Z,97769.20
2018-12-05T15:51:25.179Z,97763.23
2018-12-05T15:53:54.855Z,97761.57
2018-12-05T15:56:25.236Z,97750.72
2018-12-05T15:58:55.195Z,97749.03
2018-12-05T16:01:25.079Z,97747.17
2018-12-05T16:03:54.713Z,97751.03
2018-12-05T16:06:24.342Z,97750.05
2018-12-05T16:08:54.533Z,97742.25
2018-12-05T16:11:24.573Z,97733.92
2018-12-05T16:13:54.473Z,97725.64
2018-12-05T16:16:24.124Z,97720.39
2018-12-05T16:18:54.385Z,97717.52
2018-12-05T16:21:24.108Z,97704.63
2018-12-05T16:23:54.148Z,97702.77
2018-12-05T16:26:23.977Z,97704.13
2018-12-05T16:28:53.903Z,97692.23
2018-12-05T16:31:23.500Z,97686.13
2018-12-05T16:33:53.076Z,97675.96
2018-12-05T16:36:23.169Z,97672.78
2018-12-05T16:38:53.262Z,97676.17
2018-12-05T16:41:23.188Z,97674.30
2018-12-05T16:43:53.007Z,97660.75
2018-12-05T16:46:22.592Z,97664.13
2018-12-05T16:48:52.527Z,97663.28
2018-12-05T16:51:22.668Z,97667.69
2018-12-05T16:53:52.290Z,97663.92
2018-12-05T16:56:22.348Z,97667.15
2018-12-05T16:58:52.234Z,97664.77
2018-12-05T17:01:22.591Z,97663.38
2018-12-05T17:03:52.377Z,97654.39
2018-12-05T17:06:23.019Z,97657.11
2018-12-05T17:08:52.698Z,97652.02
2018-12-05T17:11:22.569Z,97648.92
2018-12-05T17:13:52.705Z,97653.33
2018-12-05T17:16:22.315Z,97645.87
2018-12-05T17:18:52.921Z,97638.39
2018-12-05T17:21:22.759Z,97634.31
2018-12-05T17:23:52.333Z,97626.85
2018-12-05T17:26:22.522Z,97629.34
2018-12-05T17:28:52.374Z,97630.02
2018-12-05T17:31:22.486Z,97631.04
2018-12-05T17:33:52.083Z,97634.25
2018-12-05T17:36:21.758Z,97629.80
2018-12-05T17:38:51.325Z,97630.98
2018-12-05T17:41:21.472Z,97627.02
2018-12-05T17:43:51.211Z,97618.20
2018-12-05T17:46:20.913Z,97617.52
2018-12-05T17:48:50.780Z,97619.72
2018-12-05T17:51:20.340Z,97622.08
2018-12-05T17:53:50.458Z,97616.44
2018-12-05T17:56:20.050Z,97611.52
2018-12-05T17:58:50.270Z,97611.84
2018-12-05T18:01:19.963Z,97615.22
2018-12-05T18:03:49.596Z,97607.20
2018-12-05T18:06:19.221Z,97599.58
2018-12-05T18:08:49.365Z,97606.70
2018-12-05T18:11:19.657Z,97589.88
2018-12-05T18:13:50.145Z,97585.63
2018-12-05T18:16:20.445Z,97573.74
2018-12-05T18:18:50.549Z,97576.25
2018-12-05T18:21:20.441Z,97571.15
2018-12-05T18:23:51.292Z,97564.88
2018-12-05T18:26:21.746Z,97556.04
2018-12-05T18:28:51.939Z,97548.05
2018-12-05T18:31:21.671Z,97531.58
2018-12-05T18:33:52.727Z,97530.34
2018-12-05T18:39:25.958Z,97517.61
2018-12-05T18:41:55.584Z,97516.77
2018-12-05T18:44:26.484Z,97507.59
2018-12-05T18:46:57.193Z,97499.09
2018-12-05T18:49:28.421Z,97506.05
2018-12-05T18:52:00.579Z,97509.47
2018-12-05T18:54:30.401Z,97514.38
2018-12-05T18:57:01.322Z,97507.92
2018-12-05T18:59:31.774Z,97513.87
2018-12-05T19:02:01.923Z,97506.81
2018-12-05T19:04:31.562Z,97497.91
2018-12-05T19:07:01.755Z,97502.83
2018-12-05T19:09:31.542Z,97502.83
2018-12-05T19:12:01.660Z,97495.86
2018-12-05T19:14:37.246Z,97494.69
2018-12-05T19:17:07.401Z,97493.84
2018-12-05T19:19:38.925Z,97497.73
2018-12-05T19:22:09.999Z,97492.99
2018-12-05T19:24:39.725Z,97491.45
2018-12-05T19:27:09.811Z,97491.45
2018-12-05T19:29:39.639Z,97487.05
2018-12-05T19:32:09.344Z,97485.84
2018-12-05T19:34:39.314Z,97491.27
2018-12-05T19:37:11.323Z,97486.36
2018-12-05T19:39:41.871Z,97472.08
2018-12-05T19:42:11.769Z,97466.66
2018-12-05T19:44:41.694Z,97459.02
2018-12-05T19:47:12.158Z,97458.84
2018-12-05T19:49:41.898Z,97453.41
2018-12-05T19:52:11.758Z,97456.42
2018-12-05T19:54:42.111Z,97450.14
2018-12-05T19:57:12.797Z,97446.62
2018-12-05T19:59:42.721Z,97449.96
2018-12-05T20:02:12.425Z,97445.52
2018-12-05T20:04:42.456Z,97444.53
2018-12-05T20:07:12.390Z,97441.13
2018-12-05T20:09:42.596Z,97432.64
2018-12-05T20:12:12.902Z,97432.79
2018-12-05T20:14:43.131Z,97430.59
2018-12-05T20:17:12.811Z,97430.22
2018-12-05T20:19:42.650Z,97431.44
2018-12-05T20:22:12.886Z,97438.92
2018-12-05T20:24:43.093Z,97440.42
2018-12-05T20:27:13.026Z,97439.73
2018-12-05T20:29:43.767Z,97436.68
2018-12-05T20:32:13.635Z,97440.42
2018-12-05T20:34:43.514Z,97438.16
2018-12-05T20:37:13.202Z,97441.86
2018-12-05T20:39:43.800Z,97456.87
2018-12-05T20:42:13.795Z,97451.88
2018-12-05T20:44:43.547Z,97455.63
2018-12-05T20:47:15.231Z,97448.61
2018-12-05T20:49:45.645Z,97451.70
2018-12-05T20:52:16.629Z,97458.27
2018-12-05T20:54:46.824Z,97443.80
2018-12-05T20:57:18.100Z,97440.54
2018-12-05T20:59:48.679Z,97432.42
2018-12-05T21:02:19.203Z,97421.56
2018-12-05T21:04:49.175Z,97429.86
2018-12-05T21:07:19.071Z,97428.61
2018-12-05T21:09:49.244Z,97421.81
2018-12-05T21:12:19.851Z,97420.60
2018-12-05T21:14:50.374Z,97417.05
2018-12-05T21:17:20.266Z,97412.97
2018-12-05T21:19:50.104Z,97410.06
2018-12-05T21:22:20.218Z,97406.50
2018-12-05T21:24:50.440Z,97405.48
2018-12-05T21:27:20.515Z,97403.27
2018-12-05T21:29:51.592Z,97403.60
2018-12-05T21:32:22.394Z,97402.39
2018-12-05T21:34:52.627Z,97399.73
2018-12-05T21:37:23.201Z,97393.83
2018-12-05T21:39:53.568Z,97394.34
2018-12-05T21:42:23.641Z,97396.69
2018-12-05T21:44:54.467Z,97385.78
2018-12-05T21:47:24.365Z,97382.55
2018-12-05T21:49:54.262Z,97382.22
2018-12-05T21:52:24.338Z,97378.66
2018-12-05T21:54:54.051Z,97383.44
2018-12-05T21:57:24.193Z,97380.59
2018-12-05T21:59:55.410Z,97389.14
2018-12-05T22:02:25.130Z,97390.64
2018-12-05T22:04:56.331Z,97388.19
2018-12-05T22:07:26.250Z,97383.00
2018-12-05T22:09:56.952Z,97386.92
2018-12-05T22:12:26.916Z,97382.92
2018-12-05T22:14:57.519Z,97378.37
2018-12-05T22:17:28.293Z,97370.41
2018-12-05T22:19:58.241Z,97373.41
2018-12-05T22:22:28.895Z,97367.12
2018-12-05T22:24:58.560Z,97364.78
2018-12-05T22:27:30.415Z,97363.10
2018-12-05T22:30:00.466Z,97364.13
2018-12-05T22:32:30.842Z,97361.09
2018-12-05T22:35:00.726Z,97358.09
2018-12-05T22:37:31.015Z,97357.98
2018-12-05T22:40:00.969Z,97344.23
2018-12-05T22:42:30.926Z,97347.50
2018-12-05T22:45:01.416Z,97351.39
2018-12-05T22:47:31.434Z,97345.52
2018-12-05T22:50:01.192Z,97340.97
2018-12-05T22:52:31.160Z,97332.34
2018-12-05T22:55:00.949Z,97332.56
2018-12-05T22:57:31.202Z,97331.20
2018-12-05T23:00:01.149Z,97340.75
2018-12-05T23:02:30.877Z,97339.25
2018-12-05T23:05:00.806Z,97335.06
2018-12-05T23:07:30.830Z,97331.88
2018-12-05T23:10:01.815Z,97329.67
2018-12-05T23:12:32.106Z,97326.81
2018-12-05T23:15:01.761Z,97328.58
2018-12-05T23:17:31.715Z,97318.74
2018-12-05T23:20:01.666Z,97311.48
2018-12-05T23:22:31.456Z,97310.13
2018-12-05T23:25:01.293Z,97309.98
2018-12-05T23:27:31.122Z,97307.01
2018-12-05T23:30:00.833Z,97309.24
2018-12-05T23:32:30.619Z,97304.84
2018-12-05T23:35:00.329Z,97300.14
2018-12-05T23:37:30.555Z,97299.66
2018-12-05T23:40:02.103Z,97295.84
2018-12-05T23:42:32.278Z,97296.36
2018-12-05T23:45:02.004Z,97296.36
2018-12-05T23:47:31.805Z,97289.98
2018-12-05T23:50:01.777Z,97285.47
2018-12-05T23:52:31.621Z,97285.98
2018-12-05T23:55:01.310Z,97275.82
2018-12-05T23:57:31.013Z,97274.98
